N735LU LEIB-EBBR
Flight info
| Callsign | N735LU |
|---|---|
| Flight time | 1h 54m |
| Altitude | 40000 |
| Route | EPAMA DCT MARTA DCT EBROX DCT LATRO DCT OLOXO DCT OKABI DCT TOU DCT ADABI/N0459F360 DCT BOKNO UN858 VANAD UN874 PIWIZ/N0457F340 UN874 BAMES UT191 PODEM UN873 BAZOS DCT BELDI DCT VEKIN/N0422F240 Z173 ARVOL |
| Aircraft | CL60/M-SBDE1E2E3FGHIJ1J4J5J7M3RWXYZ/LB1V1D1 |
Departure
| Time | 2026-05-04 20:49 |
|---|---|
| Airport | Ibiza Airport (LEIB) |
Arrival
| Time | 2026-05-04 22:43 |
|---|---|
| Airport | Brussels Airport (EBBR) |
| Time | Latitude | Longitude | Altitude | Speed | Heading |
|---|---|---|---|---|---|
| 2026-05-04 20:17 | 38.87727 | 1.37718 | 28 ft | 0 kts | 153° |
| 2026-05-04 20:42 | 38.87724 | 1.37719 | 28 ft | 2 kts | 153° |
| 2026-05-04 20:42 | 38.87712 | 1.37750 | 28 ft | 5 kts | 66° |
| 2026-05-04 20:42 | 38.87732 | 1.37802 | 28 ft | 6 kts | 61° |
| 2026-05-04 20:43 | 38.87758 | 1.37864 | 28 ft | 9 kts | 62° |
| 2026-05-04 20:43 | 38.87795 | 1.37956 | 28 ft | 13 kts | 63° |
| 2026-05-04 20:43 | 38.87843 | 1.38070 | 28 ft | 10 kts | 62° |
| 2026-05-04 20:43 | 38.87818 | 1.38144 | 28 ft | 11 kts | 78° |
| 2026-05-04 20:44 | 38.87860 | 1.38250 | 28 ft | 15 kts | 63° |
| 2026-05-04 20:44 | 38.87912 | 1.38384 | 28 ft | 18 kts | 64° |
| 2026-05-04 20:44 | 38.87971 | 1.38533 | 28 ft | 16 kts | 60° |
| 2026-05-04 20:44 | 38.87999 | 1.38631 | 28 ft | 8 kts | 121° |
| 2026-05-04 20:45 | 38.87961 | 1.38660 | 28 ft | 4 kts | 154° |
| 2026-05-04 20:45 | 38.87933 | 1.38677 | 28 ft | 9 kts | 150° |
| 2026-05-04 20:45 | 38.87854 | 1.38691 | 28 ft | 14 kts | 237° |
| 2026-05-04 20:45 | 38.87716 | 1.38358 | 28 ft | 78 kts | 241° |
| 2026-05-04 20:46 | 38.87486 | 1.37818 | 28 ft | 40 kts | 244° |
| 2026-05-04 20:46 | 38.87363 | 1.37505 | 28 ft | 20 kts | 242° |
| 2026-05-04 20:46 | 38.87395 | 1.37449 | 28 ft | 13 kts | 27° |
| 2026-05-04 20:46 | 38.87520 | 1.37551 | 28 ft | 24 kts | 33° |
| 2026-05-04 20:47 | 38.87639 | 1.37718 | 28 ft | 27 kts | 64° |
| 2026-05-04 20:47 | 38.87734 | 1.37943 | 28 ft | 29 kts | 63° |
| 2026-05-04 20:47 | 38.87832 | 1.38187 | 28 ft | 31 kts | 63° |
| 2026-05-04 20:47 | 38.87939 | 1.38442 | 28 ft | 31 kts | 62° |
| 2026-05-04 20:48 | 38.88003 | 1.38600 | 28 ft | 13 kts | 77° |
| 2026-05-04 20:48 | 38.87949 | 1.38668 | 28 ft | 13 kts | 151° |
| 2026-05-04 20:48 | 38.87875 | 1.38711 | 28 ft | 13 kts | 192° |
| 2026-05-04 20:48 | 38.87811 | 1.38589 | 28 ft | 31 kts | 242° |
| 2026-05-04 20:49 | 38.87545 | 1.37947 | 28 ft | 126 kts | 241° |
| 2026-05-04 20:49 | 38.87064 | 1.36749 | 422 ft | 164 kts | 242° |
| 2026-05-04 20:49 | 38.86510 | 1.35346 | 1189 ft | 188 kts | 241° |
| 2026-05-04 20:49 | 38.85894 | 1.33808 | 2157 ft | 203 kts | 242° |
| 2026-05-04 20:50 | 38.85270 | 1.32204 | 3334 ft | 208 kts | 244° |
| 2026-05-04 20:50 | 38.84619 | 1.30539 | 4484 ft | 215 kts | 244° |
| 2026-05-04 20:50 | 38.83944 | 1.28817 | 5692 ft | 223 kts | 244° |
| 2026-05-04 20:50 | 38.83470 | 1.26969 | 7094 ft | 224 kts | 264° |
| 2026-05-04 20:51 | 38.83642 | 1.25042 | 8512 ft | 226 kts | 287° |
| 2026-05-04 20:51 | 38.84563 | 1.23298 | 9582 ft | 249 kts | 315° |
| 2026-05-04 20:51 | 38.86007 | 1.21927 | 10671 ft | 264 kts | 319° |
| 2026-05-04 20:51 | 38.87503 | 1.20554 | 11902 ft | 270 kts | 318° |
| 2026-05-04 20:52 | 38.89016 | 1.19158 | 13174 ft | 272 kts | 317° |
| 2026-05-04 20:52 | 38.90574 | 1.17722 | 14382 ft | 276 kts | 317° |
| 2026-05-04 20:52 | 38.92307 | 1.16572 | 15564 ft | 290 kts | 334° |
| 2026-05-04 20:52 | 38.94349 | 1.16173 | 16559 ft | 312 kts | 355° |
| 2026-05-04 20:53 | 38.96578 | 1.16712 | 17240 ft | 338 kts | 8° |
| 2026-05-04 20:53 | 38.98922 | 1.17498 | 17886 ft | 356 kts | 8° |
| 2026-05-04 20:53 | 39.01423 | 1.18329 | 18542 ft | 372 kts | 8° |
| 2026-05-04 20:53 | 39.03980 | 1.19179 | 19186 ft | 386 kts | 8° |
| 2026-05-04 20:54 | 39.06638 | 1.20062 | 19855 ft | 398 kts | 8° |
| 2026-05-04 20:54 | 39.09402 | 1.20982 | 20464 ft | 411 kts | 8° |
| 2026-05-04 20:54 | 39.12275 | 1.21938 | 21086 ft | 423 kts | 8° |
| 2026-05-04 20:54 | 39.15176 | 1.22904 | 21693 ft | 433 kts | 8° |
| 2026-05-04 20:55 | 39.18112 | 1.23883 | 22251 ft | 444 kts | 8° |
| 2026-05-04 20:55 | 39.21156 | 1.24898 | 22848 ft | 452 kts | 8° |
| 2026-05-04 20:55 | 39.24231 | 1.25925 | 23489 ft | 458 kts | 8° |
| 2026-05-04 20:55 | 39.27362 | 1.26972 | 24168 ft | 462 kts | 8° |
| 2026-05-04 20:56 | 39.30508 | 1.28025 | 24881 ft | 466 kts | 8° |
| 2026-05-04 20:56 | 39.33709 | 1.29096 | 25526 ft | 470 kts | 8° |
| 2026-05-04 20:56 | 39.36908 | 1.30167 | 26142 ft | 474 kts | 8° |
| 2026-05-04 20:56 | 39.40122 | 1.31243 | 26698 ft | 478 kts | 8° |
| 2026-05-04 20:57 | 39.43357 | 1.32328 | 27264 ft | 481 kts | 8° |
| 2026-05-04 20:57 | 39.46641 | 1.33429 | 27774 ft | 485 kts | 8° |
| 2026-05-04 20:57 | 39.49909 | 1.34526 | 28316 ft | 487 kts | 8° |
| 2026-05-04 20:57 | 39.53234 | 1.35643 | 28789 ft | 490 kts | 8° |
| 2026-05-04 20:58 | 39.56545 | 1.36756 | 29235 ft | 493 kts | 8° |
| 2026-05-04 20:58 | 39.59936 | 1.37682 | 29679 ft | 488 kts | 360° |
| 2026-05-04 20:58 | 39.63266 | 1.37658 | 30230 ft | 475 kts | 347° |
| 2026-05-04 20:58 | 39.66591 | 1.37215 | 30745 ft | 474 kts | 347° |
| 2026-05-04 20:59 | 39.69859 | 1.36781 | 31308 ft | 472 kts | 347° |
| 2026-05-04 20:59 | 39.73163 | 1.36345 | 31904 ft | 468 kts | 347° |
| 2026-05-04 20:59 | 39.76407 | 1.35914 | 32416 ft | 466 kts | 346° |
| 2026-05-04 20:59 | 39.79602 | 1.35490 | 32909 ft | 465 kts | 346° |
| 2026-05-04 21:00 | 39.82844 | 1.35059 | 33364 ft | 464 kts | 346° |
| 2026-05-04 21:00 | 39.86066 | 1.34629 | 33775 ft | 463 kts | 346° |
| 2026-05-04 21:00 | 39.89286 | 1.34200 | 34183 ft | 462 kts | 346° |
| 2026-05-04 21:00 | 39.92484 | 1.33773 | 34512 ft | 462 kts | 346° |
| 2026-05-04 21:01 | 39.95690 | 1.33345 | 34864 ft | 461 kts | 347° |
| 2026-05-04 21:01 | 39.98903 | 1.32916 | 35211 ft | 460 kts | 347° |
| 2026-05-04 21:01 | 40.02060 | 1.32493 | 35536 ft | 459 kts | 347° |
| 2026-05-04 21:01 | 40.05259 | 1.32065 | 35840 ft | 458 kts | 347° |
| 2026-05-04 21:02 | 40.08465 | 1.31635 | 36188 ft | 458 kts | 347° |
| 2026-05-04 21:02 | 40.11657 | 1.31206 | 36559 ft | 457 kts | 347° |
| 2026-05-04 21:02 | 40.14609 | 1.30809 | 36848 ft | 458 kts | 347° |
| 2026-05-04 21:02 | 40.17783 | 1.30382 | 37119 ft | 458 kts | 347° |
| 2026-05-04 21:03 | 40.20902 | 1.29963 | 37401 ft | 457 kts | 347° |
| 2026-05-04 21:03 | 40.24102 | 1.29532 | 37677 ft | 456 kts | 347° |
| 2026-05-04 21:03 | 40.27316 | 1.29099 | 37921 ft | 456 kts | 347° |
| 2026-05-04 21:03 | 40.30479 | 1.28672 | 38162 ft | 456 kts | 347° |
| 2026-05-04 21:04 | 40.33640 | 1.28245 | 38400 ft | 456 kts | 347° |
| 2026-05-04 21:04 | 40.36812 | 1.27816 | 38597 ft | 456 kts | 347° |
| 2026-05-04 21:04 | 40.39951 | 1.27391 | 38812 ft | 456 kts | 347° |
| 2026-05-04 21:04 | 40.43138 | 1.26958 | 38972 ft | 456 kts | 347° |
| 2026-05-04 21:05 | 40.46284 | 1.26532 | 39149 ft | 457 kts | 347° |
| 2026-05-04 21:05 | 40.49449 | 1.26102 | 39336 ft | 456 kts | 347° |
| 2026-05-04 21:05 | 40.52652 | 1.25667 | 39537 ft | 456 kts | 347° |
| 2026-05-04 21:05 | 40.55792 | 1.25240 | 39672 ft | 457 kts | 347° |
| 2026-05-04 21:06 | 40.58984 | 1.24805 | 39860 ft | 456 kts | 347° |
| 2026-05-04 21:06 | 40.62132 | 1.24376 | 39956 ft | 457 kts | 347° |
| 2026-05-04 21:06 | 40.68603 | 1.23676 | 39953 ft | 468 kts | 354° |
| 2026-05-04 21:07 | 40.75195 | 1.24727 | 39940 ft | 484 kts | 9° |
| 2026-05-04 21:07 | 40.81750 | 1.27071 | 39938 ft | 486 kts | 10° |
| 2026-05-04 21:08 | 40.88308 | 1.29430 | 39932 ft | 487 kts | 10° |
| 2026-05-04 21:08 | 40.94834 | 1.31782 | 39938 ft | 486 kts | 10° |
| 2026-05-04 21:09 | 41.01429 | 1.34163 | 39928 ft | 486 kts | 11° |
| 2026-05-04 21:09 | 41.07964 | 1.36526 | 39934 ft | 486 kts | 11° |
| 2026-05-04 21:10 | 41.14379 | 1.38850 | 39940 ft | 486 kts | 11° |
| 2026-05-04 21:10 | 41.20905 | 1.41219 | 39939 ft | 486 kts | 11° |
| 2026-05-04 21:11 | 41.27471 | 1.43607 | 39938 ft | 486 kts | 11° |
| 2026-05-04 21:11 | 41.33987 | 1.45982 | 39937 ft | 486 kts | 11° |
| 2026-05-04 21:12 | 41.40530 | 1.48372 | 39941 ft | 486 kts | 11° |
| 2026-05-04 21:12 | 41.47119 | 1.50784 | 39944 ft | 486 kts | 11° |
| 2026-05-04 21:13 | 41.53670 | 1.53186 | 39935 ft | 486 kts | 11° |
| 2026-05-04 21:13 | 41.60187 | 1.55581 | 39937 ft | 487 kts | 11° |
| 2026-05-04 21:14 | 41.66759 | 1.58001 | 39932 ft | 487 kts | 11° |
| 2026-05-04 21:14 | 41.73300 | 1.60353 | 39941 ft | 485 kts | 8° |
| 2026-05-04 21:15 | 41.80009 | 1.61223 | 39939 ft | 477 kts | 353° |
| 2026-05-04 21:15 | 41.86549 | 1.60356 | 39935 ft | 472 kts | 348° |
| 2026-05-04 21:16 | 41.93134 | 1.59314 | 39940 ft | 473 kts | 348° |
| 2026-05-04 21:16 | 41.99694 | 1.58276 | 39943 ft | 472 kts | 348° |
| 2026-05-04 21:17 | 42.06157 | 1.57250 | 39941 ft | 473 kts | 348° |
| 2026-05-04 21:17 | 42.12546 | 1.56234 | 39964 ft | 473 kts | 348° |
| 2026-05-04 21:18 | 42.19021 | 1.55202 | 39970 ft | 473 kts | 348° |
| 2026-05-04 21:18 | 42.25597 | 1.54151 | 39976 ft | 475 kts | 348° |
| 2026-05-04 21:19 | 42.32182 | 1.53098 | 39976 ft | 475 kts | 348° |
| 2026-05-04 21:19 | 42.38708 | 1.52052 | 39983 ft | 475 kts | 348° |
| 2026-05-04 21:20 | 42.45331 | 1.50988 | 39980 ft | 475 kts | 348° |
| 2026-05-04 21:20 | 42.51904 | 1.49931 | 39998 ft | 475 kts | 348° |
| 2026-05-04 21:21 | 42.58433 | 1.48878 | 39994 ft | 476 kts | 348° |
| 2026-05-04 21:21 | 42.64989 | 1.47822 | 39995 ft | 475 kts | 348° |
| 2026-05-04 21:22 | 42.71608 | 1.46758 | 39993 ft | 475 kts | 348° |
| 2026-05-04 21:22 | 42.78183 | 1.45699 | 39996 ft | 476 kts | 349° |
| 2026-05-04 21:23 | 42.84779 | 1.44634 | 39990 ft | 477 kts | 349° |
| 2026-05-04 21:23 | 42.91382 | 1.43566 | 40001 ft | 477 kts | 349° |
| 2026-05-04 21:24 | 42.97994 | 1.42494 | 39999 ft | 477 kts | 349° |
| 2026-05-04 21:24 | 43.04608 | 1.41419 | 40008 ft | 477 kts | 349° |
| 2026-05-04 21:25 | 43.11223 | 1.40342 | 40008 ft | 477 kts | 349° |
| 2026-05-04 21:25 | 43.17612 | 1.39299 | 40006 ft | 477 kts | 349° |
| 2026-05-04 21:26 | 43.24107 | 1.38237 | 40010 ft | 478 kts | 349° |
| 2026-05-04 21:26 | 43.30771 | 1.37145 | 40007 ft | 478 kts | 349° |
| 2026-05-04 21:27 | 43.37234 | 1.36083 | 40003 ft | 478 kts | 349° |
| 2026-05-04 21:27 | 43.43845 | 1.34995 | 40006 ft | 478 kts | 349° |
| 2026-05-04 21:28 | 43.50372 | 1.33919 | 39997 ft | 479 kts | 349° |
| 2026-05-04 21:28 | 43.56784 | 1.32859 | 39995 ft | 478 kts | 349° |
| 2026-05-04 21:29 | 43.63437 | 1.31756 | 39989 ft | 479 kts | 349° |
| 2026-05-04 21:29 | 43.70022 | 1.30529 | 39986 ft | 477 kts | 346° |
| 2026-05-04 21:30 | 43.76570 | 1.28831 | 39982 ft | 477 kts | 346° |
| 2026-05-04 21:30 | 43.83122 | 1.27133 | 39968 ft | 477 kts | 346° |
| 2026-05-04 21:31 | 43.92945 | 1.24583 | 39959 ft | 478 kts | 346° |
| 2026-05-04 21:32 | 43.99482 | 1.22883 | 39958 ft | 478 kts | 346° |
| 2026-05-04 21:32 | 44.06054 | 1.21171 | 39960 ft | 478 kts | 346° |
| 2026-05-04 21:33 | 44.12439 | 1.19505 | 39961 ft | 478 kts | 346° |
| 2026-05-04 21:33 | 44.19039 | 1.17780 | 39957 ft | 478 kts | 346° |
| 2026-05-04 21:34 | 44.25602 | 1.16061 | 39956 ft | 479 kts | 346° |
| 2026-05-04 21:34 | 44.32106 | 1.14353 | 39950 ft | 479 kts | 346° |
| 2026-05-04 21:35 | 44.38723 | 1.12613 | 39946 ft | 479 kts | 346° |
| 2026-05-04 21:35 | 44.45309 | 1.10877 | 39946 ft | 478 kts | 346° |
| 2026-05-04 21:36 | 44.51825 | 1.09156 | 39941 ft | 479 kts | 346° |
| 2026-05-04 21:36 | 44.58409 | 1.07412 | 39944 ft | 479 kts | 346° |
| 2026-05-04 21:37 | 44.65010 | 1.05660 | 39954 ft | 480 kts | 346° |
| 2026-05-04 21:37 | 44.71612 | 1.03903 | 39951 ft | 481 kts | 346° |
| 2026-05-04 21:38 | 44.78197 | 1.02148 | 39953 ft | 481 kts | 346° |
| 2026-05-04 21:38 | 44.84817 | 1.00378 | 39947 ft | 482 kts | 346° |
| 2026-05-04 21:39 | 44.91430 | 0.98607 | 39943 ft | 482 kts | 346° |
| 2026-05-04 21:39 | 44.97995 | 0.96845 | 39943 ft | 481 kts | 346° |
| 2026-05-04 21:40 | 45.04412 | 0.95118 | 39947 ft | 480 kts | 346° |
| 2026-05-04 21:40 | 45.10804 | 0.93394 | 39934 ft | 481 kts | 346° |
| 2026-05-04 21:41 | 45.17322 | 0.91634 | 39942 ft | 480 kts | 346° |
| 2026-05-04 21:41 | 45.23888 | 0.89854 | 39944 ft | 481 kts | 346° |
| 2026-05-04 21:42 | 45.30471 | 0.88066 | 39937 ft | 481 kts | 346° |
| 2026-05-04 21:42 | 45.37109 | 0.86258 | 39938 ft | 481 kts | 346° |
| 2026-05-04 21:43 | 45.43676 | 0.84466 | 39931 ft | 480 kts | 346° |
| 2026-05-04 21:43 | 45.50254 | 0.82667 | 39920 ft | 480 kts | 347° |
| 2026-05-04 21:44 | 45.56855 | 0.80857 | 39929 ft | 480 kts | 347° |
| 2026-05-04 21:44 | 45.63429 | 0.79049 | 39922 ft | 480 kts | 347° |
| 2026-05-04 21:45 | 45.69964 | 0.77249 | 39923 ft | 480 kts | 347° |
| 2026-05-04 21:45 | 45.76490 | 0.75446 | 39914 ft | 480 kts | 347° |
| 2026-05-04 21:46 | 45.83073 | 0.73624 | 39911 ft | 480 kts | 347° |
| 2026-05-04 21:46 | 45.89666 | 0.71794 | 39910 ft | 479 kts | 347° |
| 2026-05-04 21:47 | 45.96201 | 0.69976 | 39909 ft | 479 kts | 347° |
| 2026-05-04 21:47 | 46.02752 | 0.68149 | 39910 ft | 479 kts | 347° |
| 2026-05-04 21:48 | 46.09345 | 0.66306 | 39915 ft | 479 kts | 347° |
| 2026-05-04 21:48 | 46.15790 | 0.64500 | 39909 ft | 479 kts | 347° |
| 2026-05-04 21:49 | 46.22395 | 0.62644 | 39910 ft | 479 kts | 347° |
| 2026-05-04 21:49 | 46.28945 | 0.60800 | 39911 ft | 478 kts | 347° |
| 2026-05-04 21:50 | 46.35466 | 0.58959 | 39914 ft | 478 kts | 347° |
| 2026-05-04 21:50 | 46.41995 | 0.57112 | 39913 ft | 478 kts | 347° |
| 2026-05-04 21:51 | 46.48526 | 0.55259 | 39918 ft | 478 kts | 347° |
| 2026-05-04 21:51 | 46.55130 | 0.53998 | 39915 ft | 480 kts | 358° |
| 2026-05-04 21:52 | 46.61797 | 0.54951 | 39919 ft | 482 kts | 12° |
| 2026-05-04 21:52 | 46.68368 | 0.57114 | 39916 ft | 483 kts | 12° |
| 2026-05-04 21:53 | 46.74842 | 0.59253 | 39910 ft | 482 kts | 12° |
| 2026-05-04 21:53 | 46.81397 | 0.61424 | 39912 ft | 482 kts | 12° |
| 2026-05-04 21:54 | 46.87897 | 0.63581 | 39911 ft | 482 kts | 12° |
| 2026-05-04 21:54 | 46.94288 | 0.65706 | 39907 ft | 482 kts | 12° |
| 2026-05-04 21:55 | 47.00820 | 0.67884 | 39896 ft | 482 kts | 12° |
| 2026-05-04 21:55 | 47.07388 | 0.69504 | 39909 ft | 480 kts | 3° |
| 2026-05-04 21:56 | 47.13963 | 0.70171 | 39918 ft | 480 kts | 3° |
| 2026-05-04 21:56 | 47.20432 | 0.70839 | 39919 ft | 480 kts | 3° |
| 2026-05-04 21:57 | 47.26853 | 0.71505 | 39922 ft | 481 kts | 3° |
| 2026-05-04 21:57 | 47.33516 | 0.72198 | 39920 ft | 480 kts | 3° |
| 2026-05-04 21:58 | 47.40132 | 0.72890 | 39918 ft | 481 kts | 3° |
| 2026-05-04 21:58 | 47.46815 | 0.73605 | 39922 ft | 481 kts | 5° |
| 2026-05-04 21:59 | 47.53289 | 0.75680 | 39922 ft | 481 kts | 18° |
| 2026-05-04 21:59 | 47.59677 | 0.78830 | 39916 ft | 481 kts | 18° |
| 2026-05-04 22:00 | 47.66005 | 0.81950 | 39920 ft | 481 kts | 18° |
| 2026-05-04 22:00 | 47.72382 | 0.85102 | 39919 ft | 481 kts | 18° |
| 2026-05-04 22:01 | 47.78778 | 0.88272 | 39918 ft | 482 kts | 18° |
| 2026-05-04 22:01 | 47.85135 | 0.91436 | 39920 ft | 482 kts | 18° |
| 2026-05-04 22:02 | 47.91513 | 0.94656 | 39920 ft | 482 kts | 19° |
| 2026-05-04 22:02 | 47.97828 | 0.97852 | 39918 ft | 482 kts | 19° |
| 2026-05-04 22:03 | 48.04198 | 1.01085 | 39926 ft | 482 kts | 19° |
| 2026-05-04 22:03 | 48.10547 | 1.04314 | 39935 ft | 481 kts | 19° |
| 2026-05-04 22:04 | 48.16629 | 1.07417 | 39917 ft | 481 kts | 19° |
| 2026-05-04 22:04 | 48.22867 | 1.10603 | 39929 ft | 480 kts | 19° |
| 2026-05-04 22:05 | 48.29204 | 1.13831 | 39917 ft | 480 kts | 19° |
| 2026-05-04 22:05 | 48.35513 | 1.17053 | 39917 ft | 480 kts | 18° |
| 2026-05-04 22:06 | 48.41820 | 1.20282 | 39923 ft | 479 kts | 18° |
| 2026-05-04 22:06 | 48.48146 | 1.23531 | 39919 ft | 479 kts | 18° |
| 2026-05-04 22:07 | 48.54404 | 1.26751 | 39930 ft | 478 kts | 18° |
| 2026-05-04 22:07 | 48.60652 | 1.29908 | 39923 ft | 478 kts | 18° |
| 2026-05-04 22:08 | 48.66948 | 1.33080 | 39927 ft | 477 kts | 18° |
| 2026-05-04 22:08 | 48.73214 | 1.36247 | 39923 ft | 477 kts | 18° |
| 2026-05-04 22:09 | 48.79509 | 1.39436 | 39925 ft | 477 kts | 18° |
| 2026-05-04 22:09 | 48.85762 | 1.42613 | 39925 ft | 476 kts | 18° |
| 2026-05-04 22:10 | 48.92030 | 1.45806 | 39929 ft | 476 kts | 18° |
| 2026-05-04 22:10 | 48.98308 | 1.48761 | 39926 ft | 475 kts | 11° |
| 2026-05-04 22:11 | 49.04785 | 1.50325 | 39932 ft | 474 kts | 8° |
| 2026-05-04 22:11 | 49.11282 | 1.51837 | 39930 ft | 473 kts | 8° |
| 2026-05-04 22:12 | 49.17731 | 1.53355 | 39923 ft | 473 kts | 9° |
| 2026-05-04 22:12 | 49.24037 | 1.56135 | 39931 ft | 474 kts | 22° |
| 2026-05-04 22:13 | 49.29792 | 1.61115 | 39928 ft | 474 kts | 36° |
| 2026-05-04 22:13 | 49.34727 | 1.67823 | 39933 ft | 474 kts | 44° |
| 2026-05-04 22:14 | 49.39379 | 1.74642 | 39932 ft | 475 kts | 44° |
| 2026-05-04 22:14 | 49.44109 | 1.81589 | 39930 ft | 475 kts | 44° |
| 2026-05-04 22:15 | 49.48882 | 1.88620 | 39938 ft | 474 kts | 44° |
| 2026-05-04 22:15 | 49.53644 | 1.95653 | 39944 ft | 474 kts | 44° |
| 2026-05-04 22:16 | 49.58392 | 2.02691 | 39949 ft | 474 kts | 44° |
| 2026-05-04 22:16 | 49.63145 | 2.09752 | 39950 ft | 475 kts | 44° |
| 2026-05-04 22:17 | 49.67800 | 2.16690 | 39936 ft | 475 kts | 44° |
| 2026-05-04 22:17 | 49.72564 | 2.23809 | 39929 ft | 475 kts | 44° |
| 2026-05-04 22:18 | 49.77301 | 2.30908 | 39932 ft | 475 kts | 44° |
| 2026-05-04 22:18 | 49.82023 | 2.38005 | 39932 ft | 475 kts | 44° |
| 2026-05-04 22:19 | 49.86733 | 2.45106 | 39934 ft | 475 kts | 44° |
| 2026-05-04 22:19 | 49.91453 | 2.52242 | 39601 ft | 480 kts | 44° |
| 2026-05-04 22:19 | 49.93802 | 2.55800 | 39053 ft | 478 kts | 44° |
| 2026-05-04 22:20 | 49.96169 | 2.59391 | 38449 ft | 476 kts | 45° |
| 2026-05-04 22:20 | 49.98534 | 2.62987 | 37820 ft | 475 kts | 45° |
| 2026-05-04 22:20 | 50.00799 | 2.66434 | 37212 ft | 474 kts | 45° |
| 2026-05-04 22:20 | 50.02990 | 2.69775 | 36616 ft | 472 kts | 45° |
| 2026-05-04 22:21 | 50.05442 | 2.73517 | 36051 ft | 472 kts | 45° |
| 2026-05-04 22:21 | 50.07756 | 2.77055 | 35379 ft | 480 kts | 45° |
| 2026-05-04 22:21 | 50.10114 | 2.80667 | 34602 ft | 484 kts | 45° |
| 2026-05-04 22:21 | 50.12341 | 2.84080 | 34095 ft | 477 kts | 45° |
| 2026-05-04 22:22 | 50.14730 | 2.87747 | 33454 ft | 473 kts | 45° |
| 2026-05-04 22:22 | 50.17058 | 2.91326 | 32852 ft | 473 kts | 45° |
| 2026-05-04 22:22 | 50.19364 | 2.94875 | 32238 ft | 474 kts | 45° |
| 2026-05-04 22:22 | 50.21684 | 2.98453 | 31620 ft | 476 kts | 45° |
| 2026-05-04 22:23 | 50.23988 | 3.02010 | 30999 ft | 477 kts | 45° |
| 2026-05-04 22:23 | 50.26275 | 3.05547 | 30364 ft | 477 kts | 45° |
| 2026-05-04 22:23 | 50.28622 | 3.09181 | 29750 ft | 477 kts | 45° |
| 2026-05-04 22:23 | 50.30970 | 3.12822 | 29121 ft | 477 kts | 45° |
| 2026-05-04 22:24 | 50.33292 | 3.16428 | 28493 ft | 473 kts | 45° |
| 2026-05-04 22:24 | 50.35606 | 3.20027 | 27873 ft | 466 kts | 45° |
| 2026-05-04 22:24 | 50.37931 | 3.23648 | 27247 ft | 460 kts | 45° |
| 2026-05-04 22:24 | 50.40186 | 3.27165 | 26641 ft | 454 kts | 45° |
| 2026-05-04 22:25 | 50.42412 | 3.30640 | 26043 ft | 449 kts | 45° |
| 2026-05-04 22:25 | 50.44532 | 3.33953 | 25465 ft | 444 kts | 45° |
| 2026-05-04 22:25 | 50.46726 | 3.37385 | 24873 ft | 438 kts | 45° |
| 2026-05-04 22:25 | 50.48895 | 3.40784 | 24289 ft | 434 kts | 45° |
| 2026-05-04 22:26 | 50.51037 | 3.44146 | 23707 ft | 429 kts | 45° |
| 2026-05-04 22:26 | 50.53154 | 3.47472 | 23133 ft | 424 kts | 45° |
| 2026-05-04 22:26 | 50.55363 | 3.50618 | 22564 ft | 419 kts | 37° |
| 2026-05-04 22:26 | 50.57721 | 3.53219 | 21998 ft | 416 kts | 34° |
| 2026-05-04 22:27 | 50.60146 | 3.55865 | 21441 ft | 412 kts | 34° |
| 2026-05-04 22:27 | 50.62495 | 3.58440 | 20898 ft | 408 kts | 34° |
| 2026-05-04 22:27 | 50.64841 | 3.61014 | 20356 ft | 403 kts | 34° |
| 2026-05-04 22:27 | 50.67145 | 3.63547 | 19815 ft | 400 kts | 34° |
| 2026-05-04 22:28 | 50.69419 | 3.66050 | 19287 ft | 396 kts | 35° |
| 2026-05-04 22:28 | 50.71608 | 3.68463 | 18779 ft | 392 kts | 35° |
| 2026-05-04 22:28 | 50.73890 | 3.70984 | 18241 ft | 389 kts | 35° |
| 2026-05-04 22:28 | 50.76117 | 3.73449 | 17722 ft | 385 kts | 35° |
| 2026-05-04 22:29 | 50.78340 | 3.75920 | 17203 ft | 382 kts | 35° |
| 2026-05-04 22:29 | 50.80533 | 3.78360 | 16692 ft | 378 kts | 35° |
| 2026-05-04 22:29 | 50.82689 | 3.80762 | 16191 ft | 375 kts | 35° |
| 2026-05-04 22:29 | 50.84810 | 3.83128 | 15696 ft | 372 kts | 35° |
| 2026-05-04 22:30 | 50.86848 | 3.85700 | 15198 ft | 369 kts | 45° |
| 2026-05-04 22:30 | 50.88334 | 3.88972 | 14685 ft | 364 kts | 62° |
| 2026-05-04 22:30 | 50.89338 | 3.92662 | 14163 ft | 356 kts | 67° |
| 2026-05-04 22:30 | 50.90254 | 3.96205 | 13713 ft | 346 kts | 66° |
| 2026-05-04 22:31 | 50.91163 | 3.99709 | 13259 ft | 337 kts | 66° |
| 2026-05-04 22:31 | 50.92032 | 4.03062 | 12828 ft | 329 kts | 66° |
| 2026-05-04 22:31 | 50.92894 | 4.06392 | 12391 ft | 321 kts | 66° |
| 2026-05-04 22:31 | 50.93749 | 4.09696 | 11953 ft | 313 kts | 66° |
| 2026-05-04 22:32 | 50.94568 | 4.12864 | 11547 ft | 306 kts | 66° |
| 2026-05-04 22:32 | 50.95372 | 4.15981 | 11152 ft | 300 kts | 66° |
| 2026-05-04 22:32 | 50.96155 | 4.19017 | 10762 ft | 294 kts | 66° |
| 2026-05-04 22:32 | 50.96928 | 4.22020 | 10353 ft | 290 kts | 66° |
| 2026-05-04 22:33 | 50.97685 | 4.24963 | 9939 ft | 281 kts | 66° |
| 2026-05-04 22:33 | 50.98416 | 4.27808 | 9657 ft | 270 kts | 66° |
| 2026-05-04 22:33 | 50.99122 | 4.30560 | 9245 ft | 269 kts | 66° |
| 2026-05-04 22:33 | 50.99839 | 4.33353 | 8886 ft | 265 kts | 66° |
| 2026-05-04 22:34 | 51.00528 | 4.36045 | 8522 ft | 263 kts | 66° |
| 2026-05-04 22:34 | 51.01218 | 4.38740 | 8188 ft | 262 kts | 66° |
| 2026-05-04 22:34 | 51.01914 | 4.41462 | 7832 ft | 260 kts | 66° |
| 2026-05-04 22:34 | 51.02588 | 4.44103 | 7491 ft | 259 kts | 66° |
| 2026-05-04 22:35 | 51.03264 | 4.46754 | 7148 ft | 258 kts | 66° |
| 2026-05-04 22:35 | 51.03943 | 4.49416 | 6801 ft | 256 kts | 66° |
| 2026-05-04 22:35 | 51.04607 | 4.52028 | 6463 ft | 254 kts | 66° |
| 2026-05-04 22:35 | 51.05254 | 4.54681 | 6123 ft | 253 kts | 68° |
| 2026-05-04 22:36 | 51.05850 | 4.57337 | 5783 ft | 252 kts | 69° |
| 2026-05-04 22:36 | 51.06441 | 4.59980 | 5488 ft | 251 kts | 69° |
| 2026-05-04 22:36 | 51.07032 | 4.62622 | 5133 ft | 250 kts | 69° |
| 2026-05-04 22:36 | 51.07583 | 4.65178 | 4804 ft | 247 kts | 74° |
| 2026-05-04 22:37 | 51.07710 | 4.67819 | 4420 ft | 248 kts | 95° |
| 2026-05-04 22:37 | 51.07180 | 4.70369 | 3979 ft | 250 kts | 119° |
| 2026-05-04 22:37 | 51.06070 | 4.72373 | 3511 ft | 255 kts | 142° |
| 2026-05-04 22:37 | 51.04447 | 4.73571 | 3026 ft | 257 kts | 163° |
| 2026-05-04 22:38 | 51.02744 | 4.74324 | 2715 ft | 245 kts | 163° |
| 2026-05-04 22:38 | 51.01141 | 4.74946 | 2560 ft | 225 kts | 169° |
| 2026-05-04 22:38 | 50.99628 | 4.74856 | 2433 ft | 210 kts | 194° |
| 2026-05-04 22:38 | 50.98416 | 4.73833 | 2292 ft | 192 kts | 221° |
| 2026-05-04 22:39 | 50.97660 | 4.72370 | 2180 ft | 174 kts | 240° |
| 2026-05-04 22:39 | 50.97113 | 4.70610 | 2047 ft | 171 kts | 246° |
| 2026-05-04 22:39 | 50.96610 | 4.68885 | 1972 ft | 168 kts | 246° |
| 2026-05-04 22:39 | 50.96122 | 4.67216 | 1973 ft | 170 kts | 246° |
| 2026-05-04 22:40 | 50.95630 | 4.65506 | 1977 ft | 170 kts | 247° |
| 2026-05-04 22:40 | 50.95136 | 4.63784 | 1952 ft | 166 kts | 247° |
| 2026-05-04 22:40 | 50.94682 | 4.62207 | 1781 ft | 148 kts | 248° |
| 2026-05-04 22:40 | 50.94276 | 4.60797 | 1611 ft | 141 kts | 248° |
| 2026-05-04 22:41 | 50.93879 | 4.59415 | 1403 ft | 136 kts | 248° |
| 2026-05-04 22:41 | 50.93493 | 4.58068 | 1237 ft | 134 kts | 248° |
| 2026-05-04 22:41 | 50.93113 | 4.56743 | 1058 ft | 132 kts | 248° |
| 2026-05-04 22:41 | 50.92735 | 4.55431 | 887 ft | 131 kts | 248° |
| 2026-05-04 22:42 | 50.92367 | 4.54162 | 721 ft | 130 kts | 247° |
| 2026-05-04 22:42 | 50.92022 | 4.52968 | 559 ft | 127 kts | 248° |
| 2026-05-04 22:42 | 50.91665 | 4.51700 | 419 ft | 126 kts | 248° |
| 2026-05-04 22:42 | 50.91312 | 4.50493 | 212 ft | 123 kts | 246° |
| 2026-05-04 22:43 | 50.90968 | 4.49300 | 111 ft | 111 kts | 248° |
| 2026-05-04 22:43 | 50.90704 | 4.48380 | 107 ft | 73 kts | 245° |
| 2026-05-04 22:43 | 50.90547 | 4.47853 | 106 ft | 38 kts | 238° |
| 2026-05-04 22:43 | 50.90384 | 4.47595 | 108 ft | 24 kts | 214° |
| 2026-05-04 22:44 | 50.90279 | 4.47477 | 110 ft | 18 kts | 218° |
| 2026-05-04 22:44 | 50.90210 | 4.47291 | 112 ft | 20 kts | 245° |
| 2026-05-04 22:44 | 50.90149 | 4.47075 | 113 ft | 22 kts | 247° |
| 2026-05-04 22:44 | 50.90081 | 4.46841 | 114 ft | 24 kts | 244° |
| 2026-05-04 22:45 | 50.90015 | 4.46610 | 119 ft | 17 kts | 246° |
| 2026-05-04 22:45 | 50.89975 | 4.46744 | 119 ft | 18 kts | 63° |
| 2026-05-04 22:45 | 50.90039 | 4.46962 | 115 ft | 24 kts | 67° |
| 2026-05-04 22:46 | 50.90103 | 4.47195 | 115 ft | 23 kts | 66° |
| 2026-05-04 22:46 | 50.90165 | 4.47415 | 113 ft | 14 kts | 80° |
| 2026-05-04 22:46 | 50.90106 | 4.47522 | 116 ft | 14 kts | 158° |
| 2026-05-04 22:46 | 50.90012 | 4.47583 | 120 ft | 15 kts | 157° |
| 2026-05-04 22:47 | 50.89936 | 4.47531 | 122 ft | 15 kts | 246° |
| 2026-05-04 22:47 | 50.89889 | 4.47366 | 122 ft | 19 kts | 245° |
| 2026-05-04 22:47 | 50.89830 | 4.47270 | 123 ft | 10 kts | 157° |
| 2026-05-04 22:47 | 50.89786 | 4.47270 | 124 ft | 0 kts | 256° |
| 2026-05-04 22:48 | 50.89772 | 4.47218 | 125 ft | 10 kts | 244° |
| 2026-05-04 22:48 | 50.89746 | 4.47133 | 126 ft | 7 kts | 243° |
| 2026-05-04 22:48 | 50.89724 | 4.47065 | 126 ft | 8 kts | 244° |
| 2026-05-04 22:48 | 50.89693 | 4.46997 | 125 ft | 5 kts | 167° |
| 2026-05-04 22:49 | 50.89666 | 4.47018 | 126 ft | 0 kts | 154° |